Aviation Digital Data Service (ADDS)

Output produced by METARs form (0236 UTC 18 June 2019)
found at http://www.aviationweather.gov/metar/data/
 
Forecast for: GMMZ (OUARZAZATE , MA)
Text: TAF GMMZ 172300Z 1800/1906 24007KT CAVOK
Forecast period: 0000 UTC 18 June 2019 to 0600 UTC 19 June 2019
Forecast type: FROM: standard forecast or significant change
Winds: from the WSW (240 degrees) at 8 MPH (7 knots; 3.6 m/s)
Visibility: 6 or more miles 10+ km)
Ceiling: unknown
Clouds: missing
Weather: NSW  (no significant weather)